createdAt,value
2018-06-14T00:00:19.955Z,7.71
2018-06-14T00:02:49.147Z,7.68
2018-06-14T00:05:18.579Z,7.60
2018-06-14T00:07:47.750Z,7.61
2018-06-14T00:10:17.443Z,7.49
2018-06-14T00:12:46.644Z,7.55
2018-06-14T00:15:15.807Z,7.50
2018-06-14T00:17:45.011Z,7.40
2018-06-14T00:20:14.605Z,7.45
2018-06-14T00:22:43.990Z,7.40
2018-06-14T00:25:13.650Z,7.35
2018-06-14T00:27:42.801Z,7.32
2018-06-14T00:30:12.027Z,7.34
2018-06-14T00:32:41.548Z,7.24
2018-06-14T00:35:10.731Z,7.20
2018-06-14T00:37:40.033Z,7.22
2018-06-14T00:40:09.467Z,7.16
2018-06-14T00:42:38.575Z,7.18
2018-06-14T00:45:07.839Z,7.20
2018-06-14T00:47:37.014Z,7.20
2018-06-14T00:50:06.816Z,7.24
2018-06-14T00:52:36.030Z,7.17
2018-06-14T00:55:05.231Z,7.09
2018-06-14T00:57:34.386Z,7.15
2018-06-14T01:00:03.618Z,7.08
2018-06-14T01:02:34.115Z,7.16
2018-06-14T01:05:03.334Z,7.20
2018-06-14T01:07:32.618Z,7.23
2018-06-14T01:10:02.447Z,7.09
2018-06-14T01:12:31.599Z,7.14
2018-06-14T01:15:01.119Z,7.06
2018-06-14T01:17:30.283Z,6.95
2018-06-14T01:19:59.515Z,6.93
2018-06-14T01:22:28.694Z,6.92
2018-06-14T01:24:58.157Z,6.88
2018-06-14T01:27:27.299Z,6.88
2018-06-14T01:29:56.645Z,6.86
2018-06-14T01:32:25.787Z,6.88
2018-06-14T01:34:54.977Z,6.85
2018-06-14T01:37:35.317Z,6.74
2018-06-14T01:40:04.547Z,6.72
2018-06-14T01:42:33.718Z,6.73
2018-06-14T01:45:02.946Z,6.79
2018-06-14T01:47:32.999Z,6.75
2018-06-14T01:50:02.416Z,6.78
2018-06-14T01:52:31.678Z,6.74
2018-06-14T01:55:00.873Z,6.68
2018-06-14T01:57:30.025Z,6.72
2018-06-14T01:59:59.402Z,6.69
2018-06-14T02:02:29.026Z,6.53
2018-06-14T02:04:58.239Z,6.50
2018-06-14T02:07:27.403Z,6.48
2018-06-14T02:09:56.910Z,6.48
2018-06-14T02:12:26.190Z,6.51
2018-06-14T02:14:55.387Z,6.53
2018-06-14T02:17:24.835Z,6.48
2018-06-14T02:19:54.040Z,6.49
2018-06-14T02:22:23.666Z,6.43
2018-06-14T02:24:52.850Z,6.34
2018-06-14T02:27:22.035Z,6.33
2018-06-14T02:29:51.354Z,6.26
2018-06-14T02:32:20.762Z,6.31
2018-06-14T02:34:49.981Z,6.36
2018-06-14T02:37:19.150Z,6.37
2018-06-14T02:39:48.334Z,6.38
2018-06-14T02:42:18.243Z,6.32
2018-06-14T02:44:47.529Z,6.25
2018-06-14T02:47:16.636Z,6.23
2018-06-14T02:49:45.811Z,6.21
2018-06-14T02:52:15.003Z,6.25
2018-06-14T02:54:44.190Z,6.34
2018-06-14T02:57:13.387Z,6.38
2018-06-14T02:59:42.819Z,6.29
2018-06-14T03:02:12.061Z,6.32
2018-06-14T03:04:41.551Z,6.33
2018-06-14T03:07:10.755Z,6.47
2018-06-14T03:09:39.903Z,6.32
2018-06-14T03:12:09.406Z,6.34
2018-06-14T03:14:38.579Z,6.37
2018-06-14T03:17:07.799Z,6.38
2018-06-14T03:19:36.958Z,6.38
2018-06-14T03:22:06.170Z,6.41
2018-06-14T03:24:35.426Z,6.43
2018-06-14T03:27:04.627Z,6.49
2018-06-14T03:29:33.766Z,6.56
2018-06-14T03:32:03.838Z,6.59
2018-06-14T03:34:33.578Z,6.57
2018-06-14T03:37:03.122Z,6.51
2018-06-14T03:39:32.534Z,6.65
2018-06-14T03:42:06.959Z,6.69
2018-06-14T03:44:37.558Z,6.75
2018-06-14T03:47:07.879Z,6.82
2018-06-14T03:49:38.395Z,6.96
2018-06-14T03:52:08.356Z,7.05
2018-06-14T03:54:37.639Z,7.15
2018-06-14T03:57:07.829Z,7.26
2018-06-14T03:59:37.003Z,7.31
2018-06-14T04:02:06.587Z,7.34
2018-06-14T04:04:35.786Z,7.38
2018-06-14T04:07:04.995Z,7.44
2018-06-14T04:09:34.895Z,7.48
2018-06-14T04:12:04.251Z,7.57
2018-06-14T04:14:33.620Z,7.56
2018-06-14T04:17:03.461Z,7.62
2018-06-14T04:19:33.082Z,7.75
2018-06-14T04:22:02.286Z,7.87
2018-06-14T04:24:31.472Z,7.91
2018-06-14T04:27:00.678Z,8.03
2018-06-14T04:29:30.311Z,8.10
2018-06-14T04:32:00.172Z,8.20
2018-06-14T04:34:29.336Z,8.34
2018-06-14T04:36:58.786Z,8.52
2018-06-14T04:39:29.312Z,8.75
2018-06-14T04:41:58.823Z,8.92
2018-06-14T04:44:28.043Z,9.06
2018-06-14T04:46:57.255Z,9.25
2018-06-14T04:49:26.835Z,9.28
2018-06-14T04:51:56.039Z,9.40
2018-06-14T04:54:25.224Z,9.77
2018-06-14T04:56:54.411Z,9.93
2018-06-14T04:59:23.589Z,10.10
2018-06-14T05:01:53.002Z,10.33
2018-06-14T05:04:22.198Z,10.62
2018-06-14T05:06:51.393Z,10.65
2018-06-14T05:09:20.582Z,10.94
2018-06-14T05:11:49.772Z,11.13
2018-06-14T05:14:19.794Z,11.20
2018-06-14T05:16:49.021Z,11.35
2018-06-14T05:19:18.275Z,11.50
2018-06-14T05:21:47.466Z,11.81
2018-06-14T05:24:16.793Z,12.00
2018-06-14T05:26:46.215Z,12.24
2018-06-14T05:29:15.388Z,12.50
2018-06-14T05:31:45.309Z,12.62
2018-06-14T05:34:14.467Z,12.95
2018-06-14T05:36:43.695Z,13.19
2018-06-14T05:39:13.175Z,13.29
2018-06-14T05:41:42.386Z,13.66
2018-06-14T05:44:11.563Z,13.89
2018-06-14T05:46:40.804Z,14.24
2018-06-14T05:49:10.227Z,14.62
2018-06-14T05:51:39.463Z,14.71
2018-06-14T05:54:08.655Z,14.89
2018-06-14T05:56:37.855Z,15.73
2018-06-14T05:59:07.027Z,16.43
2018-06-14T06:01:36.404Z,16.61
2018-06-14T06:04:05.751Z,17.55
2018-06-14T06:06:34.987Z,18.47
2018-06-14T06:09:06.408Z,18.61
2018-06-14T06:11:35.619Z,18.34
2018-06-14T06:14:04.834Z,18.41
2018-06-14T06:16:34.351Z,17.93
2018-06-14T06:19:03.542Z,17.52
2018-06-14T06:21:32.751Z,17.57
2018-06-14T06:24:01.955Z,16.72
2018-06-14T06:26:31.187Z,17.95
2018-06-14T06:29:00.379Z,18.15
2018-06-14T06:31:29.891Z,17.73
2018-06-14T06:33:59.080Z,17.67
2018-06-14T06:36:28.438Z,18.46
2018-06-14T06:38:57.908Z,18.91
2018-06-14T06:41:27.067Z,19.88
2018-06-14T06:43:56.271Z,19.49
2018-06-14T06:46:25.467Z,19.42
2018-06-14T06:48:54.651Z,19.71
2018-06-14T06:51:23.874Z,20.49
2018-06-14T06:53:53.058Z,20.56
2018-06-14T06:56:22.870Z,19.53
2018-06-14T06:58:52.140Z,18.89
2018-06-14T07:01:21.302Z,19.51
2018-06-14T07:03:50.495Z,20.22
2018-06-14T07:06:19.680Z,18.25
2018-06-14T07:08:49.395Z,18.64
2018-06-14T07:11:18.586Z,18.50
2018-06-14T07:13:47.794Z,19.52
2018-06-14T07:16:17.382Z,20.82
2018-06-14T07:18:46.888Z,21.17
2018-06-14T07:21:16.066Z,21.23
2018-06-14T07:23:45.301Z,21.67
2018-06-14T07:26:14.484Z,21.86
2018-06-14T07:28:43.680Z,21.78
2018-06-14T07:31:12.891Z,22.01
2018-06-14T07:33:42.100Z,21.82
2018-06-14T07:36:11.424Z,23.76
2018-06-14T07:38:40.620Z,22.08
2018-06-14T07:41:10.715Z,20.21
2018-06-14T07:43:39.915Z,19.08
2018-06-14T07:46:09.106Z,18.28
2018-06-14T07:48:38.426Z,17.54
2018-06-14T07:51:07.651Z,19.23
2018-06-14T07:53:36.918Z,21.90
2018-06-14T07:56:06.275Z,21.55
2018-06-14T07:58:35.483Z,22.84
2018-06-14T08:01:04.664Z,24.14
2018-06-14T08:03:33.899Z,21.34
2018-06-14T08:06:03.299Z,21.85
2018-06-14T08:08:32.524Z,24.22
2018-06-14T08:11:01.715Z,23.28
2018-06-14T08:13:31.076Z,22.21
2018-06-14T08:16:00.769Z,20.72
2018-06-14T08:18:29.938Z,22.04
2018-06-14T08:20:59.151Z,23.04
2018-06-14T08:23:28.355Z,26.08
2018-06-14T08:25:57.521Z,26.53
2018-06-14T08:28:26.979Z,25.02
2018-06-14T08:30:56.186Z,23.56
2018-06-14T08:33:25.395Z,23.85
2018-06-14T08:35:54.822Z,25.21
2018-06-14T08:38:24.042Z,26.18
2018-06-14T08:40:53.236Z,24.73
2018-06-14T08:43:22.427Z,23.05
2018-06-14T08:45:51.612Z,20.63
2018-06-14T08:48:21.928Z,20.27
2018-06-14T08:50:51.095Z,20.55
2018-06-14T08:53:20.323Z,23.15
2018-06-14T08:55:49.500Z,25.30
2018-06-14T08:58:18.743Z,24.85
2018-06-14T09:00:48.946Z,28.06
2018-06-14T09:03:18.195Z,30.10
2018-06-14T09:05:47.350Z,29.45
2018-06-14T09:08:16.539Z,29.31
2018-06-14T09:10:45.759Z,25.76
2018-06-14T09:13:14.989Z,22.44
2018-06-14T09:15:44.300Z,21.19
2018-06-14T09:18:13.626Z,22.20
2018-06-14T09:20:42.915Z,22.84
2018-06-14T09:23:12.106Z,23.09
2018-06-14T09:25:41.448Z,21.63
2018-06-14T09:28:10.967Z,22.42
2018-06-14T09:30:40.152Z,21.61
2018-06-14T09:33:09.363Z,22.85
2018-06-14T09:35:38.792Z,26.56
2018-06-14T09:38:08.262Z,27.38
2018-06-14T09:40:37.471Z,27.08
2018-06-14T09:43:06.690Z,28.44
2018-06-14T09:45:36.110Z,26.77
2018-06-14T09:48:05.334Z,27.60
2018-06-14T09:50:34.507Z,26.04
2018-06-14T09:53:05.034Z,25.61
2018-06-14T09:55:34.443Z,24.64
2018-06-14T09:58:04.195Z,24.32
2018-06-14T10:00:33.525Z,26.94
2018-06-14T10:03:02.737Z,26.94
2018-06-14T10:05:32.429Z,27.70
2018-06-14T10:08:01.578Z,30.41
2018-06-14T10:10:30.770Z,30.30
2018-06-14T10:13:00.025Z,28.33
2018-06-14T10:15:29.223Z,25.36
2018-06-14T10:17:58.928Z,24.26
2018-06-14T10:20:28.130Z,26.91
2018-06-14T10:22:57.639Z,29.70
2018-06-14T10:25:26.841Z,28.98
2018-06-14T10:27:56.959Z,28.05
2018-06-14T10:30:26.523Z,27.70
2018-06-14T10:32:56.446Z,26.95
2018-06-14T10:35:26.179Z,26.91
2018-06-14T10:37:55.359Z,28.81
2018-06-14T10:40:24.613Z,28.03
2018-06-14T10:42:54.140Z,29.51
2018-06-14T10:45:23.383Z,27.61
2018-06-14T10:47:52.771Z,27.50
2018-06-14T10:50:22.013Z,26.99
2018-06-14T10:52:51.397Z,26.13
2018-06-14T10:55:20.894Z,29.70
2018-06-14T10:57:50.089Z,29.37
2018-06-14T11:00:19.637Z,31.41
2018-06-14T11:02:49.080Z,30.12
2018-06-14T11:05:18.496Z,31.66
2018-06-14T11:07:47.691Z,31.43
2018-06-14T11:10:16.896Z,26.70
2018-06-14T11:12:46.193Z,26.21
2018-06-14T11:15:15.954Z,28.96
2018-06-14T11:17:45.111Z,28.33
2018-06-14T11:20:14.694Z,30.48
2018-06-14T11:22:44.127Z,30.67
2018-06-14T11:25:13.332Z,29.39
2018-06-14T11:27:43.546Z,29.17
2018-06-14T11:30:12.748Z,30.75
2018-06-14T11:32:41.930Z,28.01
2018-06-14T11:35:11.144Z,28.02
2018-06-14T11:37:40.343Z,28.24
2018-06-14T11:40:10.079Z,28.72
2018-06-14T11:42:39.587Z,26.30
2018-06-14T11:45:08.832Z,24.78
2018-06-14T11:47:38.023Z,26.73
2018-06-14T11:50:07.272Z,26.32
2018-06-14T11:52:36.676Z,26.16
2018-06-14T11:55:06.147Z,26.96
2018-06-14T11:57:35.651Z,26.91
2018-06-14T12:00:04.923Z,26.98
2018-06-14T12:02:34.165Z,26.19
2018-06-14T12:05:03.723Z,27.16
2018-06-14T12:07:32.923Z,25.78
2018-06-14T12:10:02.153Z,25.45
2018-06-14T12:12:31.752Z,28.71
2018-06-14T12:15:02.050Z,29.59
2018-06-14T12:17:31.219Z,30.55
2018-06-14T12:20:00.446Z,30.94
2018-06-14T12:22:29.666Z,31.62
2018-06-14T12:24:59.207Z,33.00
2018-06-14T12:27:28.383Z,29.87
2018-06-14T12:29:58.231Z,28.39
2018-06-14T12:32:27.443Z,27.94
2018-06-14T12:34:56.772Z,28.55
2018-06-14T12:37:26.099Z,31.18
2018-06-14T12:39:55.330Z,26.54
2018-06-14T12:42:24.529Z,25.03
2018-06-14T12:44:54.435Z,25.92
2018-06-14T12:47:24.644Z,26.42
2018-06-14T12:49:54.138Z,27.77
2018-06-14T12:53:52.469Z,29.66
2018-06-14T12:56:21.701Z,28.65
2018-06-14T12:58:50.931Z,28.41
2018-06-14T13:01:20.316Z,28.37
2018-06-14T13:03:49.505Z,27.72
2018-06-14T13:06:18.736Z,25.35
2018-06-14T13:08:47.923Z,25.69
2018-06-14T13:11:17.415Z,25.09
2018-06-14T13:13:46.794Z,26.15
2018-06-14T13:16:16.013Z,25.96
2018-06-14T13:18:45.427Z,25.94
2018-06-14T13:21:14.777Z,26.64
2018-06-14T13:23:43.983Z,26.88
2018-06-14T13:26:14.235Z,27.80
2018-06-14T13:28:44.212Z,27.37
2018-06-14T13:31:13.840Z,27.28
2018-06-14T13:33:43.028Z,26.95
2018-06-14T13:36:12.523Z,28.17
2018-06-14T13:38:41.983Z,28.49
2018-06-14T13:41:11.207Z,28.86
2018-06-14T13:43:40.391Z,26.97
2018-06-14T13:46:10.167Z,26.76
2018-06-14T13:48:39.883Z,23.83
2018-06-14T13:51:09.622Z,24.18
2018-06-14T13:53:38.804Z,24.50
2018-06-14T13:56:08.351Z,25.52
2018-06-14T13:58:37.519Z,24.94
2018-06-14T14:01:07.065Z,24.38
2018-06-14T14:03:36.584Z,23.96
2018-06-14T14:06:06.208Z,23.61
2018-06-14T14:08:35.827Z,24.53
2018-06-14T14:11:05.039Z,24.05
2018-06-14T14:13:34.767Z,24.46
2018-06-14T14:16:03.998Z,24.49
2018-06-14T14:18:33.594Z,24.75
2018-06-14T14:21:02.819Z,24.80
2018-06-14T14:23:32.006Z,24.93
2018-06-14T14:26:01.220Z,24.72
2018-06-14T14:28:30.803Z,24.31
2018-06-14T14:31:00.051Z,23.35
2018-06-14T14:33:30.488Z,23.70
2018-06-14T14:36:00.016Z,24.46
2018-06-14T14:38:29.209Z,24.46
2018-06-14T14:40:59.139Z,23.92
2018-06-14T14:43:28.434Z,23.14
2018-06-14T14:45:57.927Z,23.10
2018-06-14T14:48:27.102Z,23.42
2018-06-14T14:50:56.782Z,24.46
2018-06-14T14:53:25.967Z,23.91
2018-06-14T14:55:55.927Z,23.93
2018-06-14T14:58:25.112Z,24.64
2018-06-14T15:00:54.323Z,25.14
2018-06-14T15:03:23.502Z,24.03
2018-06-14T15:05:52.694Z,23.74
2018-06-14T15:08:22.099Z,24.43
2018-06-14T15:10:51.586Z,23.44
2018-06-14T15:13:20.795Z,23.51
2018-06-14T15:15:49.986Z,23.32
2018-06-14T15:18:19.402Z,23.75
2018-06-14T15:20:48.618Z,23.43
2018-06-14T15:23:17.825Z,23.45
2018-06-14T15:25:47.395Z,24.10
2018-06-14T15:28:16.575Z,24.54
2018-06-14T15:30:45.773Z,24.90
2018-06-14T15:33:14.960Z,23.69
2018-06-14T15:35:44.527Z,23.47
2018-06-14T15:38:13.715Z,22.94
2018-06-14T15:40:42.895Z,22.28
2018-06-14T15:43:12.230Z,22.63
2018-06-14T15:45:41.610Z,22.59
2018-06-14T15:48:11.206Z,22.06
2018-06-14T15:50:42.148Z,21.96
2018-06-14T15:53:11.623Z,22.18
2018-06-14T15:55:58.491Z,22.27
2018-06-14T15:58:27.687Z,21.93
2018-06-14T16:00:57.327Z,21.85
2018-06-14T16:03:26.551Z,21.46
2018-06-14T16:05:55.723Z,21.66
2018-06-14T16:08:24.913Z,21.54
2018-06-14T16:10:54.285Z,20.87
2018-06-14T16:13:23.482Z,20.89
2018-06-14T16:15:52.664Z,21.20
2018-06-14T16:18:21.871Z,21.40
2018-06-14T16:20:51.095Z,21.18
2018-06-14T16:23:20.283Z,20.61
2018-06-14T16:25:49.465Z,20.81
2018-06-14T16:28:18.758Z,21.54
2018-06-14T16:30:47.930Z,21.97
2018-06-14T16:33:17.140Z,21.75
2018-06-14T16:35:46.314Z,21.46
2018-06-14T16:38:16.463Z,21.06
2018-06-14T16:40:45.658Z,20.80
2018-06-14T16:43:15.419Z,20.94
2018-06-14T16:45:44.626Z,21.00
2018-06-14T16:48:13.879Z,20.95
2018-06-14T16:50:43.066Z,20.98
2018-06-14T16:53:12.902Z,20.92
2018-06-14T16:55:42.089Z,20.79
2018-06-14T16:58:11.395Z,20.41
2018-06-14T17:00:40.727Z,20.02
2018-06-14T17:03:09.946Z,20.35
2018-06-14T17:05:39.143Z,20.21
2018-06-14T17:08:08.371Z,20.07
2018-06-14T17:10:38.019Z,20.21
2018-06-14T17:13:07.218Z,20.10
2018-06-14T17:15:36.642Z,20.17
2018-06-14T17:18:06.274Z,19.91
2018-06-14T17:20:35.666Z,19.63
2018-06-14T17:23:04.891Z,19.89
2018-06-14T17:25:34.038Z,20.06
2018-06-14T17:28:03.268Z,20.14
2018-06-14T17:30:32.456Z,20.11
2018-06-14T17:33:01.647Z,19.72
2018-06-14T17:35:30.981Z,19.85
2018-06-14T17:38:00.458Z,19.56
2018-06-14T17:40:29.695Z,19.42
2018-06-14T17:42:58.918Z,19.35
2018-06-14T17:45:28.120Z,19.17
2018-06-14T17:47:58.471Z,18.88
2018-06-14T17:50:27.650Z,18.86
2018-06-14T17:52:57.156Z,18.86
2018-06-14T17:55:26.455Z,18.90
2018-06-14T17:57:55.658Z,18.78
2018-06-14T18:00:24.844Z,18.63
2018-06-14T18:02:54.758Z,18.50
2018-06-14T18:05:23.984Z,18.58
2018-06-14T18:07:53.247Z,18.50
2018-06-14T18:10:23.775Z,18.23
2018-06-14T18:12:54.300Z,18.27
2018-06-14T18:15:23.908Z,18.14
2018-06-14T18:17:53.915Z,17.64
2018-06-14T18:20:23.030Z,17.50
2018-06-14T18:22:52.319Z,17.48
2018-06-14T18:25:21.515Z,17.19
2018-06-14T18:27:50.859Z,17.14
2018-06-14T18:30:20.048Z,16.83
2018-06-14T18:32:49.271Z,16.77
2018-06-14T18:35:18.437Z,16.59
2018-06-14T18:37:49.384Z,16.59
2018-06-14T18:40:18.987Z,16.29
2018-06-14T18:42:48.907Z,16.33
2018-06-14T18:45:18.105Z,16.41
2018-06-14T18:47:48.396Z,16.38
2018-06-14T18:50:18.352Z,16.14
2018-06-14T18:52:48.052Z,16.21
2018-06-14T18:55:18.105Z,16.29
2018-06-14T18:57:48.790Z,16.16
2018-06-14T19:00:19.064Z,16.08
2018-06-14T19:02:49.214Z,16.00
2018-06-14T19:05:18.602Z,15.82
2018-06-14T19:07:48.103Z,15.78
2018-06-14T19:10:17.311Z,15.76
2018-06-14T19:12:47.555Z,15.73
2018-06-14T19:15:17.138Z,15.83
2018-06-14T19:17:47.203Z,15.68
2018-06-14T19:20:17.468Z,15.77
2018-06-14T19:22:47.156Z,15.74
2018-06-14T19:25:17.253Z,15.87
2018-06-14T19:27:46.950Z,15.83
2018-06-14T19:30:16.623Z,15.63
2018-06-14T19:32:45.877Z,15.62
2018-06-14T19:35:15.212Z,15.50
2018-06-14T19:37:44.452Z,15.57
2018-06-14T19:40:14.471Z,15.52
2018-06-14T19:42:44.155Z,15.46
2018-06-14T19:45:13.391Z,15.45
2018-06-14T19:47:42.583Z,15.50
2018-06-14T19:50:12.951Z,15.46
2018-06-14T19:52:42.155Z,15.53
2018-06-14T19:55:11.351Z,15.41
2018-06-14T19:57:40.523Z,15.45
2018-06-14T20:00:09.795Z,15.35
2018-06-14T20:02:38.971Z,15.41
2018-06-14T20:05:08.159Z,15.57
2018-06-14T20:07:37.343Z,15.51
2018-06-14T20:10:06.655Z,15.50
2018-06-14T20:12:36.127Z,15.53
2018-06-14T20:15:06.038Z,15.48
2018-06-14T20:17:35.342Z,15.49
2018-06-14T20:20:04.931Z,15.42
2018-06-14T20:22:34.128Z,15.49
2018-06-14T20:25:03.348Z,15.48
2018-06-14T20:27:32.647Z,15.46
2018-06-14T20:30:02.151Z,15.60
2018-06-14T20:32:31.712Z,15.54
2018-06-14T20:35:01.824Z,15.43
2018-06-14T20:37:31.023Z,15.55
2018-06-14T20:40:00.261Z,15.51
2018-06-14T20:42:29.477Z,15.50
2018-06-14T20:44:58.668Z,15.49
2018-06-14T20:47:27.859Z,15.47
2018-06-14T20:49:57.076Z,15.37
2018-06-14T20:52:26.256Z,15.37
2018-06-14T20:54:55.721Z,15.32
2018-06-14T20:57:25.124Z,15.42
2018-06-14T20:59:54.335Z,15.27
2018-06-14T21:02:23.703Z,15.30
2018-06-14T21:04:52.923Z,15.26
2018-06-14T21:07:22.183Z,15.34
2018-06-14T21:09:51.726Z,15.26
2018-06-14T21:12:20.938Z,15.27
2018-06-14T21:14:50.219Z,15.26
2018-06-14T21:17:19.437Z,15.23
2018-06-14T21:19:48.643Z,15.14
2018-06-14T21:22:18.169Z,15.09
2018-06-14T21:24:48.298Z,15.06
2018-06-14T21:27:18.035Z,15.12
2018-06-14T21:29:47.264Z,15.23
2018-06-14T21:32:16.494Z,15.26
2018-06-14T21:34:45.684Z,15.19
2018-06-14T21:37:14.879Z,15.16
2018-06-14T21:39:44.239Z,15.16
2018-06-14T21:42:13.638Z,15.17
2018-06-14T21:44:42.864Z,15.10
2018-06-14T21:47:12.036Z,15.08
2018-06-14T21:49:41.290Z,15.01
2018-06-14T21:52:10.492Z,15.01
2018-06-14T21:54:39.994Z,14.87
2018-06-14T21:57:09.287Z,14.89
2018-06-14T21:59:38.774Z,14.92
2018-06-14T22:02:08.279Z,14.94
2018-06-14T22:04:37.486Z,14.92
2018-06-14T22:07:06.752Z,14.93
2018-06-14T22:09:36.035Z,14.80
2018-06-14T22:12:05.217Z,14.70
2018-06-14T22:14:34.440Z,14.69
2018-06-14T22:17:03.675Z,14.68
2018-06-14T22:19:32.894Z,14.74
2018-06-14T22:22:02.102Z,14.70
2018-06-14T22:24:31.330Z,14.69
2018-06-14T22:27:00.504Z,14.77
2018-06-14T22:29:29.735Z,14.80
2018-06-14T22:31:58.947Z,14.83
2018-06-14T22:34:39.395Z,14.82
2018-06-14T22:37:08.620Z,14.90
2018-06-14T22:39:38.034Z,15.07
2018-06-14T22:42:07.223Z,14.93
2018-06-14T22:44:36.476Z,14.97
2018-06-14T22:47:06.106Z,14.92
2018-06-14T22:49:35.563Z,14.87
2018-06-14T22:53:11.762Z,14.77
2018-06-14T22:55:40.981Z,14.74
2018-06-14T22:58:10.168Z,14.67
2018-06-14T23:01:46.799Z,14.64
2018-06-14T23:04:18.853Z,14.61
2018-06-14T23:06:48.318Z,14.71
2018-06-14T23:10:35.282Z,14.64
2018-06-14T23:13:04.987Z,14.82
2018-06-14T23:15:35.023Z,14.86
2018-06-14T23:18:04.246Z,14.83
2018-06-14T23:20:34.235Z,14.80
2018-06-14T23:23:04.209Z,14.89
2018-06-14T23:25:34.021Z,14.76
2018-06-14T23:28:03.387Z,14.83
2018-06-14T23:30:32.579Z,14.83
2018-06-14T23:33:01.794Z,14.87
2018-06-14T23:35:30.984Z,14.85
2018-06-14T23:38:00.195Z,14.87
2018-06-14T23:40:29.521Z,14.91
2018-06-14T23:42:58.731Z,14.92
2018-06-14T23:45:28.004Z,14.94
2018-06-14T23:47:57.164Z,14.84
2018-06-14T23:50:26.727Z,14.90
2018-06-14T23:52:55.920Z,14.85
2018-06-14T23:55:25.088Z,14.89
2018-06-14T23:57:54.302Z,14.79
